sensor_id;sensor_type;location;lat;lon;timestamp;temperature;humidity
40291;DHT22;26000;48.304;13.626;2022-08-19T00:01:54;21.70;99.90
40291;DHT22;26000;48.304;13.626;2022-08-19T00:04:23;21.70;99.90
40291;DHT22;26000;48.304;13.626;2022-08-19T00:06:50;21.70;99.90
40291;DHT22;26000;48.304;13.626;2022-08-19T00:09:18;21.60;99.90
40291;DHT22;26000;48.304;13.626;2022-08-19T00:11:45;21.60;99.90
40291;DHT22;26000;48.304;13.626;2022-08-19T00:14:13;21.50;99.90
40291;DHT22;26000;48.304;13.626;2022-08-19T00:16:40;21.50;99.90
40291;DHT22;26000;48.304;13.626;2022-08-19T00:19:07;21.50;99.90
40291;DHT22;26000;48.304;13.626;2022-08-19T00:21:33;21.50;99.90
40291;DHT22;26000;48.304;13.626;2022-08-19T00:24:03;21.50;99.90
40291;DHT22;26000;48.304;13.626;2022-08-19T00:26:29;21.50;99.90
40291;DHT22;26000;48.304;13.626;2022-08-19T00:28:55;21.50;99.90
40291;DHT22;26000;48.304;13.626;2022-08-19T00:31:22;21.50;99.90
40291;DHT22;26000;48.304;13.626;2022-08-19T00:33:47;21.40;99.90
40291;DHT22;26000;48.304;13.626;2022-08-19T00:36:15;21.40;99.90
40291;DHT22;26000;48.304;13.626;2022-08-19T00:38:41;21.40;99.90
40291;DHT22;26000;48.304;13.626;2022-08-19T00:41:10;21.40;99.90
40291;DHT22;26000;48.304;13.626;2022-08-19T00:43:35;21.40;99.90
40291;DHT22;26000;48.304;13.626;2022-08-19T00:46:01;21.40;99.90
40291;DHT22;26000;48.304;13.626;2022-08-19T00:48:31;21.50;99.90
40291;DHT22;26000;48.304;13.626;2022-08-19T00:50:57;21.40;99.90
40291;DHT22;26000;48.304;13.626;2022-08-19T00:53:26;21.40;99.90
40291;DHT22;26000;48.304;13.626;2022-08-19T00:55:56;21.40;99.90
40291;DHT22;26000;48.304;13.626;2022-08-19T00:58:27;21.40;99.90
40291;DHT22;26000;48.304;13.626;2022-08-19T01:00:54;21.30;99.90
40291;DHT22;26000;48.304;13.626;2022-08-19T01:03:20;21.30;99.90
40291;DHT22;26000;48.304;13.626;2022-08-19T01:05:47;21.20;99.90
40291;DHT22;26000;48.304;13.626;2022-08-19T01:08:15;21.30;99.90
40291;DHT22;26000;48.304;13.626;2022-08-19T01:11:00;21.20;99.90
40291;DHT22;26000;48.304;13.626;2022-08-19T01:13:29;21.20;99.90
40291;DHT22;26000;48.304;13.626;2022-08-19T01:16:05;21.20;99.90
40291;DHT22;26000;48.304;13.626;2022-08-19T01:18:32;21.30;99.90
40291;DHT22;26000;48.304;13.626;2022-08-19T01:21:05;21.20;99.90
40291;DHT22;26000;48.304;13.626;2022-08-19T01:23:33;21.30;99.90
40291;DHT22;26000;48.304;13.626;2022-08-19T01:26:11;21.20;99.90
40291;DHT22;26000;48.304;13.626;2022-08-19T01:28:37;21.30;99.90
40291;DHT22;26000;48.304;13.626;2022-08-19T01:31:04;21.30;99.90
40291;DHT22;26000;48.304;13.626;2022-08-19T01:33:30;21.30;99.90
40291;DHT22;26000;48.304;13.626;2022-08-19T01:36:38;21.30;99.90
40291;DHT22;26000;48.304;13.626;2022-08-19T01:39:06;21.30;99.90
40291;DHT22;26000;48.304;13.626;2022-08-19T01:41:33;21.30;99.90
40291;DHT22;26000;48.304;13.626;2022-08-19T01:43:58;21.30;99.90
40291;DHT22;26000;48.304;13.626;2022-08-19T01:46:24;21.40;99.90
40291;DHT22;26000;48.304;13.626;2022-08-19T01:48:50;21.40;99.90
40291;DHT22;26000;48.304;13.626;2022-08-19T01:51:15;21.40;99.90
40291;DHT22;26000;48.304;13.626;2022-08-19T01:53:41;21.40;99.90
40291;DHT22;26000;48.304;13.626;2022-08-19T01:56:08;21.40;99.90
40291;DHT22;26000;48.304;13.626;2022-08-19T01:58:40;21.30;99.90
40291;DHT22;26000;48.304;13.626;2022-08-19T02:01:07;21.40;99.90
40291;DHT22;26000;48.304;13.626;2022-08-19T02:03:33;21.40;99.90
40291;DHT22;26000;48.304;13.626;2022-08-19T02:06:03;21.30;99.90
40291;DHT22;26000;48.304;13.626;2022-08-19T02:08:32;21.30;99.90
40291;DHT22;26000;48.304;13.626;2022-08-19T02:10:58;21.20;99.90
40291;DHT22;26000;48.304;13.626;2022-08-19T02:13:25;21.20;99.90
40291;DHT22;26000;48.304;13.626;2022-08-19T02:15:51;21.20;99.90
40291;DHT22;26000;48.304;13.626;2022-08-19T02:18:17;21.20;99.90
40291;DHT22;26000;48.304;13.626;2022-08-19T02:20:43;21.20;99.90
40291;DHT22;26000;48.304;13.626;2022-08-19T02:23:11;21.20;99.90
40291;DHT22;26000;48.304;13.626;2022-08-19T02:25:37;21.20;99.90
40291;DHT22;26000;48.304;13.626;2022-08-19T02:28:04;21.20;99.90
40291;DHT22;26000;48.304;13.626;2022-08-19T02:30:30;21.20;99.90
40291;DHT22;26000;48.304;13.626;2022-08-19T02:32:56;21.20;99.90
40291;DHT22;26000;48.304;13.626;2022-08-19T02:35:21;21.20;99.90
40291;DHT22;26000;48.304;13.626;2022-08-19T02:37:47;21.20;99.90
40291;DHT22;26000;48.304;13.626;2022-08-19T02:40:32;21.20;99.90
40291;DHT22;26000;48.304;13.626;2022-08-19T02:43:08;21.20;99.90
40291;DHT22;26000;48.304;13.626;2022-08-19T02:45:35;21.10;99.90
40291;DHT22;26000;48.304;13.626;2022-08-19T02:48:03;21.10;99.90
40291;DHT22;26000;48.304;13.626;2022-08-19T02:50:29;21.00;99.90
40291;DHT22;26000;48.304;13.626;2022-08-19T02:52:55;21.00;99.90
40291;DHT22;26000;48.304;13.626;2022-08-19T02:55:21;21.00;99.90
40291;DHT22;26000;48.304;13.626;2022-08-19T02:57:47;21.10;99.90
40291;DHT22;26000;48.304;13.626;2022-08-19T03:00:13;21.10;99.90
40291;DHT22;26000;48.304;13.626;2022-08-19T03:02:39;21.10;99.90
40291;DHT22;26000;48.304;13.626;2022-08-19T03:05:06;21.10;99.90
40291;DHT22;26000;48.304;13.626;2022-08-19T03:07:31;21.10;99.90
40291;DHT22;26000;48.304;13.626;2022-08-19T03:09:57;21.10;99.90
40291;DHT22;26000;48.304;13.626;2022-08-19T03:12:23;21.10;99.90
40291;DHT22;26000;48.304;13.626;2022-08-19T03:14:49;21.10;99.90
40291;DHT22;26000;48.304;13.626;2022-08-19T03:17:14;21.10;99.90
40291;DHT22;26000;48.304;13.626;2022-08-19T03:19:40;21.10;99.90
40291;DHT22;26000;48.304;13.626;2022-08-19T03:22:06;21.10;99.90
40291;DHT22;26000;48.304;13.626;2022-08-19T03:24:31;21.10;99.90
40291;DHT22;26000;48.304;13.626;2022-08-19T03:26:58;21.10;99.90
40291;DHT22;26000;48.304;13.626;2022-08-19T03:29:25;21.10;99.90
40291;DHT22;26000;48.304;13.626;2022-08-19T03:31:51;21.10;99.90
40291;DHT22;26000;48.304;13.626;2022-08-19T03:34:27;21.10;99.90
40291;DHT22;26000;48.304;13.626;2022-08-19T03:36:55;21.00;99.90
40291;DHT22;26000;48.304;13.626;2022-08-19T03:39:22;21.00;99.90
40291;DHT22;26000;48.304;13.626;2022-08-19T03:41:49;21.00;99.90
40291;DHT22;26000;48.304;13.626;2022-08-19T03:44:21;21.00;99.90
40291;DHT22;26000;48.304;13.626;2022-08-19T03:46:56;21.00;99.90
40291;DHT22;26000;48.304;13.626;2022-08-19T03:49:25;21.00;99.90
40291;DHT22;26000;48.304;13.626;2022-08-19T03:51:53;21.00;99.90
40291;DHT22;26000;48.304;13.626;2022-08-19T03:54:20;21.00;99.90
40291;DHT22;26000;48.304;13.626;2022-08-19T03:56:49;21.00;99.90
40291;DHT22;26000;48.304;13.626;2022-08-19T03:59:25;21.00;99.90
40291;DHT22;26000;48.304;13.626;2022-08-19T04:01:56;21.00;99.90
40291;DHT22;26000;48.304;13.626;2022-08-19T04:04:22;21.00;99.90
40291;DHT22;26000;48.304;13.626;2022-08-19T04:06:48;21.00;99.90
40291;DHT22;26000;48.304;13.626;2022-08-19T04:09:14;21.00;99.90
40291;DHT22;26000;48.304;13.626;2022-08-19T04:11:43;21.00;99.90
40291;DHT22;26000;48.304;13.626;2022-08-19T04:14:11;21.00;99.90
40291;DHT22;26000;48.304;13.626;2022-08-19T04:16:36;21.00;99.90
40291;DHT22;26000;48.304;13.626;2022-08-19T04:19:04;21.00;99.90
40291;DHT22;26000;48.304;13.626;2022-08-19T04:21:30;21.00;99.90
40291;DHT22;26000;48.304;13.626;2022-08-19T04:23:57;21.00;99.90
40291;DHT22;26000;48.304;13.626;2022-08-19T04:26:30;21.00;99.90
40291;DHT22;26000;48.304;13.626;2022-08-19T04:29:03;21.00;99.90
40291;DHT22;26000;48.304;13.626;2022-08-19T04:31:31;21.00;99.90
40291;DHT22;26000;48.304;13.626;2022-08-19T04:34:02;21.00;99.90
40291;DHT22;26000;48.304;13.626;2022-08-19T04:36:31;21.00;99.90
40291;DHT22;26000;48.304;13.626;2022-08-19T04:38:59;21.00;99.90
40291;DHT22;26000;48.304;13.626;2022-08-19T04:41:26;21.10;99.90
40291;DHT22;26000;48.304;13.626;2022-08-19T04:44:11;21.10;99.90
40291;DHT22;26000;48.304;13.626;2022-08-19T04:46:38;21.20;99.90
40291;DHT22;26000;48.304;13.626;2022-08-19T04:49:05;21.20;99.90
40291;DHT22;26000;48.304;13.626;2022-08-19T04:51:31;21.20;99.90
40291;DHT22;26000;48.304;13.626;2022-08-19T04:53:57;21.20;99.90
40291;DHT22;26000;48.304;13.626;2022-08-19T04:56:24;21.20;99.90
40291;DHT22;26000;48.304;13.626;2022-08-19T04:58:52;21.30;99.90
40291;DHT22;26000;48.304;13.626;2022-08-19T05:01:25;21.20;99.90
40291;DHT22;26000;48.304;13.626;2022-08-19T05:03:51;21.20;99.90
40291;DHT22;26000;48.304;13.626;2022-08-19T05:06:18;21.20;99.90
40291;DHT22;26000;48.304;13.626;2022-08-19T05:08:45;21.20;99.90
40291;DHT22;26000;48.304;13.626;2022-08-19T05:11:17;21.30;99.90
40291;DHT22;26000;48.304;13.626;2022-08-19T05:13:44;21.30;99.90
40291;DHT22;26000;48.304;13.626;2022-08-19T05:16:11;21.30;99.90
40291;DHT22;26000;48.304;13.626;2022-08-19T05:18:38;21.30;99.90
40291;DHT22;26000;48.304;13.626;2022-08-19T05:21:24;21.30;99.90
40291;DHT22;26000;48.304;13.626;2022-08-19T05:24:08;21.30;99.90
40291;DHT22;26000;48.304;13.626;2022-08-19T05:26:38;21.30;99.90
40291;DHT22;26000;48.304;13.626;2022-08-19T05:29:04;21.20;99.90
40291;DHT22;26000;48.304;13.626;2022-08-19T05:31:31;21.10;99.90
40291;DHT22;26000;48.304;13.626;2022-08-19T05:33:57;21.10;99.90
40291;DHT22;26000;48.304;13.626;2022-08-19T05:36:28;21.10;99.90
40291;DHT22;26000;48.304;13.626;2022-08-19T05:38:54;21.10;99.90
40291;DHT22;26000;48.304;13.626;2022-08-19T05:41:21;21.10;99.90
40291;DHT22;26000;48.304;13.626;2022-08-19T05:43:49;21.20;99.90
40291;DHT22;26000;48.304;13.626;2022-08-19T05:46:18;21.20;99.90
40291;DHT22;26000;48.304;13.626;2022-08-19T05:48:44;21.10;99.90
40291;DHT22;26000;48.304;13.626;2022-08-19T05:51:09;21.20;99.90
40291;DHT22;26000;48.304;13.626;2022-08-19T05:53:36;21.20;99.90
40291;DHT22;26000;48.304;13.626;2022-08-19T05:56:11;21.20;99.90
40291;DHT22;26000;48.304;13.626;2022-08-19T05:58:38;21.30;99.90
40291;DHT22;26000;48.304;13.626;2022-08-19T06:01:09;21.40;99.90
40291;DHT22;26000;48.304;13.626;2022-08-19T06:03:36;21.40;99.90
40291;DHT22;26000;48.304;13.626;2022-08-19T06:06:04;21.40;99.90
40291;DHT22;26000;48.304;13.626;2022-08-19T06:08:31;21.50;99.90
40291;DHT22;26000;48.304;13.626;2022-08-19T06:10:58;21.50;99.90
40291;DHT22;26000;48.304;13.626;2022-08-19T06:13:36;21.60;99.90
40291;DHT22;26000;48.304;13.626;2022-08-19T06:16:02;21.60;99.90
40291;DHT22;26000;48.304;13.626;2022-08-19T06:18:27;21.70;99.90
40291;DHT22;26000;48.304;13.626;2022-08-19T06:20:53;21.70;99.90
40291;DHT22;26000;48.304;13.626;2022-08-19T06:23:18;21.80;99.90
40291;DHT22;26000;48.304;13.626;2022-08-19T06:25:45;21.80;99.90
40291;DHT22;26000;48.304;13.626;2022-08-19T06:28:11;21.90;99.90
40291;DHT22;26000;48.304;13.626;2022-08-19T06:30:37;22.00;99.90
40291;DHT22;26000;48.304;13.626;2022-08-19T06:33:02;22.10;99.90
40291;DHT22;26000;48.304;13.626;2022-08-19T06:35:28;22.30;99.90
40291;DHT22;26000;48.304;13.626;2022-08-19T06:37:55;22.40;99.90
40291;DHT22;26000;48.304;13.626;2022-08-19T06:40:20;22.70;99.90
40291;DHT22;26000;48.304;13.626;2022-08-19T06:42:46;23.00;99.90
40291;DHT22;26000;48.304;13.626;2022-08-19T06:45:12;23.20;99.90
40291;DHT22;26000;48.304;13.626;2022-08-19T06:47:37;23.30;99.90
40291;DHT22;26000;48.304;13.626;2022-08-19T06:50:03;23.60;99.90
40291;DHT22;26000;48.304;13.626;2022-08-19T06:52:34;23.80;99.90
40291;DHT22;26000;48.304;13.626;2022-08-19T06:55:01;23.90;99.90
40291;DHT22;26000;48.304;13.626;2022-08-19T06:57:27;23.90;99.90
40291;DHT22;26000;48.304;13.626;2022-08-19T06:59:58;23.80;99.90
40291;DHT22;26000;48.304;13.626;2022-08-19T07:02:25;23.70;99.90
40291;DHT22;26000;48.304;13.626;2022-08-19T07:04:52;23.70;99.90
40291;DHT22;26000;48.304;13.626;2022-08-19T07:07:19;23.70;99.90
40291;DHT22;26000;48.304;13.626;2022-08-19T07:09:45;23.50;99.90
40291;DHT22;26000;48.304;13.626;2022-08-19T07:12:13;23.50;99.90
40291;DHT22;26000;48.304;13.626;2022-08-19T07:14:42;23.30;99.90
40291;DHT22;26000;48.304;13.626;2022-08-19T07:17:10;23.20;99.90
40291;DHT22;26000;48.304;13.626;2022-08-19T07:19:37;23.10;99.90
40291;DHT22;26000;48.304;13.626;2022-08-19T07:22:05;23.10;99.90
40291;DHT22;26000;48.304;13.626;2022-08-19T07:24:31;23.20;99.90
40291;DHT22;26000;48.304;13.626;2022-08-19T07:26:59;23.20;99.90
40291;DHT22;26000;48.304;13.626;2022-08-19T07:29:31;23.20;99.90
40291;DHT22;26000;48.304;13.626;2022-08-19T07:31:59;23.20;99.90
40291;DHT22;26000;48.304;13.626;2022-08-19T07:34:26;23.20;99.90
40291;DHT22;26000;48.304;13.626;2022-08-19T07:36:53;23.20;99.90
40291;DHT22;26000;48.304;13.626;2022-08-19T07:39:25;23.20;99.90
40291;DHT22;26000;48.304;13.626;2022-08-19T07:41:52;23.10;99.90
40291;DHT22;26000;48.304;13.626;2022-08-19T07:44:19;23.00;99.90
40291;DHT22;26000;48.304;13.626;2022-08-19T07:46:49;23.10;99.90
40291;DHT22;26000;48.304;13.626;2022-08-19T07:49:16;23.10;99.90
40291;DHT22;26000;48.304;13.626;2022-08-19T07:51:51;23.20;99.90
40291;DHT22;26000;48.304;13.626;2022-08-19T07:54:19;23.20;99.90
40291;DHT22;26000;48.304;13.626;2022-08-19T07:56:45;23.30;99.90
40291;DHT22;26000;48.304;13.626;2022-08-19T07:59:11;23.30;99.90
40291;DHT22;26000;48.304;13.626;2022-08-19T08:01:38;23.40;99.90
40291;DHT22;26000;48.304;13.626;2022-08-19T08:04:06;23.30;99.90
40291;DHT22;26000;48.304;13.626;2022-08-19T08:06:50;23.30;99.90
40291;DHT22;26000;48.304;13.626;2022-08-19T08:09:37;23.20;99.90
40291;DHT22;26000;48.304;13.626;2022-08-19T08:12:07;23.30;99.90
40291;DHT22;26000;48.304;13.626;2022-08-19T08:14:39;23.20;99.90
40291;DHT22;26000;48.304;13.626;2022-08-19T08:17:07;23.30;99.90
40291;DHT22;26000;48.304;13.626;2022-08-19T08:19:33;23.20;99.90
40291;DHT22;26000;48.304;13.626;2022-08-19T08:22:01;23.30;99.90
40291;DHT22;26000;48.304;13.626;2022-08-19T08:24:28;23.30;99.90
40291;DHT22;26000;48.304;13.626;2022-08-19T08:26:56;23.20;99.90
40291;DHT22;26000;48.304;13.626;2022-08-19T08:29:27;23.10;99.90
40291;DHT22;26000;48.304;13.626;2022-08-19T08:31:53;23.10;99.90
40291;DHT22;26000;48.304;13.626;2022-08-19T08:34:20;23.10;99.90
40291;DHT22;26000;48.304;13.626;2022-08-19T08:36:46;23.10;99.90
40291;DHT22;26000;48.304;13.626;2022-08-19T08:39:18;23.10;99.90
40291;DHT22;26000;48.304;13.626;2022-08-19T08:44:42;23.20;99.90
40291;DHT22;26000;48.304;13.626;2022-08-19T08:47:16;23.20;99.90
40291;DHT22;26000;48.304;13.626;2022-08-19T08:49:59;23.30;99.90
40291;DHT22;26000;48.304;13.626;2022-08-19T08:52:39;23.30;99.90
40291;DHT22;26000;48.304;13.626;2022-08-19T08:55:14;23.40;99.90
40291;DHT22;26000;48.304;13.626;2022-08-19T08:57:51;23.40;99.90
40291;DHT22;26000;48.304;13.626;2022-08-19T09:02:59;23.40;99.90
40291;DHT22;26000;48.304;13.626;2022-08-19T09:05:43;23.40;99.90
40291;DHT22;26000;48.304;13.626;2022-08-19T09:08:27;23.40;99.90
40291;DHT22;26000;48.304;13.626;2022-08-19T09:10:56;23.40;99.90
40291;DHT22;26000;48.304;13.626;2022-08-19T09:16:16;23.50;99.90
40291;DHT22;26000;48.304;13.626;2022-08-19T09:18:51;23.60;99.90
40291;DHT22;26000;48.304;13.626;2022-08-19T09:21:21;23.80;99.90
40291;DHT22;26000;48.304;13.626;2022-08-19T09:23:48;24.00;99.90
40291;DHT22;26000;48.304;13.626;2022-08-19T09:26:19;24.20;99.90
40291;DHT22;26000;48.304;13.626;2022-08-19T09:28:47;24.40;99.90
40291;DHT22;26000;48.304;13.626;2022-08-19T09:31:22;24.60;99.90
40291;DHT22;26000;48.304;13.626;2022-08-19T09:33:49;24.90;99.90
40291;DHT22;26000;48.304;13.626;2022-08-19T09:36:17;25.10;99.90
40291;DHT22;26000;48.304;13.626;2022-08-19T09:38:44;25.30;99.90
40291;DHT22;26000;48.304;13.626;2022-08-19T09:41:16;25.40;99.90
40291;DHT22;26000;48.304;13.626;2022-08-19T09:43:45;25.80;99.90
40291;DHT22;26000;48.304;13.626;2022-08-19T09:46:12;26.00;99.90
40291;DHT22;26000;48.304;13.626;2022-08-19T09:48:39;26.10;99.90
40291;DHT22;26000;48.304;13.626;2022-08-19T09:51:08;26.10;99.90
40291;DHT22;26000;48.304;13.626;2022-08-19T09:53:38;26.20;99.90
40291;DHT22;26000;48.304;13.626;2022-08-19T09:56:05;26.20;99.90
40291;DHT22;26000;48.304;13.626;2022-08-19T09:58:32;26.40;99.90
40291;DHT22;26000;48.304;13.626;2022-08-19T10:00:59;26.40;99.90
40291;DHT22;26000;48.304;13.626;2022-08-19T10:03:27;26.30;99.90
40291;DHT22;26000;48.304;13.626;2022-08-19T10:05:54;26.30;99.90
40291;DHT22;26000;48.304;13.626;2022-08-19T10:08:23;26.30;99.90
40291;DHT22;26000;48.304;13.626;2022-08-19T10:10:49;26.10;99.90
40291;DHT22;26000;48.304;13.626;2022-08-19T10:13:17;25.90;99.90
40291;DHT22;26000;48.304;13.626;2022-08-19T10:15:45;25.60;99.90
40291;DHT22;26000;48.304;13.626;2022-08-19T10:18:11;25.50;99.90
40291;DHT22;26000;48.304;13.626;2022-08-19T10:20:36;25.50;99.90
40291;DHT22;26000;48.304;13.626;2022-08-19T10:23:03;25.40;99.90
40291;DHT22;26000;48.304;13.626;2022-08-19T10:25:29;25.20;99.90
40291;DHT22;26000;48.304;13.626;2022-08-19T10:27:55;25.10;99.90
40291;DHT22;26000;48.304;13.626;2022-08-19T10:30:20;25.20;99.90
40291;DHT22;26000;48.304;13.626;2022-08-19T10:32:46;25.20;99.90
40291;DHT22;26000;48.304;13.626;2022-08-19T10:35:12;25.30;99.90
40291;DHT22;26000;48.304;13.626;2022-08-19T10:37:39;25.30;99.90
40291;DHT22;26000;48.304;13.626;2022-08-19T10:40:07;25.40;99.90
40291;DHT22;26000;48.304;13.626;2022-08-19T10:42:34;25.60;99.90
40291;DHT22;26000;48.304;13.626;2022-08-19T10:45:00;25.50;99.90
40291;DHT22;26000;48.304;13.626;2022-08-19T10:47:26;25.60;99.90
40291;DHT22;26000;48.304;13.626;2022-08-19T10:49:53;25.60;99.90
40291;DHT22;26000;48.304;13.626;2022-08-19T10:52:42;25.60;99.90
40291;DHT22;26000;48.304;13.626;2022-08-19T10:55:08;26.00;99.90
40291;DHT22;26000;48.304;13.626;2022-08-19T10:57:53;26.40;99.90
40291;DHT22;26000;48.304;13.626;2022-08-19T11:00:21;26.80;99.70
40291;DHT22;26000;48.304;13.626;2022-08-19T11:02:47;26.80;99.50
40291;DHT22;26000;48.304;13.626;2022-08-19T11:05:13;27.10;98.90
40291;DHT22;26000;48.304;13.626;2022-08-19T11:07:41;27.10;99.30
40291;DHT22;26000;48.304;13.626;2022-08-19T11:10:08;27.00;98.20
40291;DHT22;26000;48.304;13.626;2022-08-19T11:12:37;27.00;97.90
40291;DHT22;26000;48.304;13.626;2022-08-19T11:15:08;27.10;97.50
40291;DHT22;26000;48.304;13.626;2022-08-19T11:17:40;27.00;98.20
40291;DHT22;26000;48.304;13.626;2022-08-19T11:20:07;27.10;99.00
40291;DHT22;26000;48.304;13.626;2022-08-19T11:22:34;27.30;99.00
40291;DHT22;26000;48.304;13.626;2022-08-19T11:25:00;27.50;98.40
40291;DHT22;26000;48.304;13.626;2022-08-19T11:27:26;27.60;97.20
40291;DHT22;26000;48.304;13.626;2022-08-19T11:29:51;27.50;97.20
40291;DHT22;26000;48.304;13.626;2022-08-19T11:32:18;27.50;97.20
40291;DHT22;26000;48.304;13.626;2022-08-19T11:34:43;27.40;96.80
40291;DHT22;26000;48.304;13.626;2022-08-19T11:37:09;27.20;96.80
40291;DHT22;26000;48.304;13.626;2022-08-19T11:39:35;27.40;96.70
40291;DHT22;26000;48.304;13.626;2022-08-19T11:42:04;27.20;96.90
40291;DHT22;26000;48.304;13.626;2022-08-19T11:44:49;27.10;96.40
40291;DHT22;26000;48.304;13.626;2022-08-19T11:47:14;27.20;97.50
40291;DHT22;26000;48.304;13.626;2022-08-19T11:49:40;27.10;96.60
40291;DHT22;26000;48.304;13.626;2022-08-19T11:52:06;27.10;96.60
40291;DHT22;26000;48.304;13.626;2022-08-19T11:54:32;27.00;96.80
40291;DHT22;26000;48.304;13.626;2022-08-19T11:56:58;27.10;96.10
40291;DHT22;26000;48.304;13.626;2022-08-19T11:59:24;27.00;96.20
40291;DHT22;26000;48.304;13.626;2022-08-19T12:01:52;27.00;96.00
40291;DHT22;26000;48.304;13.626;2022-08-19T12:04:17;26.90;96.30
40291;DHT22;26000;48.304;13.626;2022-08-19T12:06:43;26.90;96.50
40291;DHT22;26000;48.304;13.626;2022-08-19T12:09:10;26.90;97.00
40291;DHT22;26000;48.304;13.626;2022-08-19T12:11:37;26.90;97.20
40291;DHT22;26000;48.304;13.626;2022-08-19T12:14:03;27.10;96.90
40291;DHT22;26000;48.304;13.626;2022-08-19T12:16:30;27.20;96.60
40291;DHT22;26000;48.304;13.626;2022-08-19T12:18:57;27.10;96.70
40291;DHT22;26000;48.304;13.626;2022-08-19T12:21:26;27.00;96.70
40291;DHT22;26000;48.304;13.626;2022-08-19T12:23:55;26.80;96.70
40291;DHT22;26000;48.304;13.626;2022-08-19T12:26:23;26.70;97.00
40291;DHT22;26000;48.304;13.626;2022-08-19T12:28:48;26.70;96.80
40291;DHT22;26000;48.304;13.626;2022-08-19T12:31:14;26.60;96.30
40291;DHT22;26000;48.304;13.626;2022-08-19T12:33:41;26.60;96.60
40291;DHT22;26000;48.304;13.626;2022-08-19T12:36:13;26.60;97.40
40291;DHT22;26000;48.304;13.626;2022-08-19T12:38:40;26.70;97.20
40291;DHT22;26000;48.304;13.626;2022-08-19T12:41:06;26.60;96.80
40291;DHT22;26000;48.304;13.626;2022-08-19T12:43:36;26.70;97.40
40291;DHT22;26000;48.304;13.626;2022-08-19T12:46:04;26.60;96.80
40291;DHT22;26000;48.304;13.626;2022-08-19T12:48:34;26.70;97.00
40291;DHT22;26000;48.304;13.626;2022-08-19T12:51:00;26.70;97.00
40291;DHT22;26000;48.304;13.626;2022-08-19T12:53:27;26.80;97.50
40291;DHT22;26000;48.304;13.626;2022-08-19T12:55:57;26.90;97.20
40291;DHT22;26000;48.304;13.626;2022-08-19T12:58:25;26.90;97.10
40291;DHT22;26000;48.304;13.626;2022-08-19T13:00:51;26.90;96.60
40291;DHT22;26000;48.304;13.626;2022-08-19T13:03:16;27.00;97.30
40291;DHT22;26000;48.304;13.626;2022-08-19T13:05:42;27.30;95.30
40291;DHT22;26000;48.304;13.626;2022-08-19T13:08:08;27.30;95.60
40291;DHT22;26000;48.304;13.626;2022-08-19T13:10:35;27.30;96.30
40291;DHT22;26000;48.304;13.626;2022-08-19T13:13:03;27.20;96.40
40291;DHT22;26000;48.304;13.626;2022-08-19T13:15:33;27.10;96.10
40291;DHT22;26000;48.304;13.626;2022-08-19T13:17:59;27.00;95.20
40291;DHT22;26000;48.304;13.626;2022-08-19T13:20:25;26.90;96.50
40291;DHT22;26000;48.304;13.626;2022-08-19T13:22:51;26.90;96.20
40291;DHT22;26000;48.304;13.626;2022-08-19T13:25:17;26.90;96.30
40291;DHT22;26000;48.304;13.626;2022-08-19T13:27:45;26.90;96.00
40291;DHT22;26000;48.304;13.626;2022-08-19T13:30:12;26.90;96.40
40291;DHT22;26000;48.304;13.626;2022-08-19T13:32:57;27.00;95.50
40291;DHT22;26000;48.304;13.626;2022-08-19T13:35:51;27.00;96.70
40291;DHT22;26000;48.304;13.626;2022-08-19T13:38:21;27.10;96.10
40291;DHT22;26000;48.304;13.626;2022-08-19T13:40:47;27.20;96.20
40291;DHT22;26000;48.304;13.626;2022-08-19T13:43:15;27.20;95.50
40291;DHT22;26000;48.304;13.626;2022-08-19T13:45:42;27.20;95.70
40291;DHT22;26000;48.304;13.626;2022-08-19T13:48:08;27.20;95.40
40291;DHT22;26000;48.304;13.626;2022-08-19T13:50:42;27.20;94.90
40291;DHT22;26000;48.304;13.626;2022-08-19T13:53:11;27.20;94.50
40291;DHT22;26000;48.304;13.626;2022-08-19T13:55:41;27.20;94.00
40291;DHT22;26000;48.304;13.626;2022-08-19T13:58:08;27.20;95.10
40291;DHT22;26000;48.304;13.626;2022-08-19T14:00:36;27.10;95.40
40291;DHT22;26000;48.304;13.626;2022-08-19T14:03:10;27.10;95.50
40291;DHT22;26000;48.304;13.626;2022-08-19T14:05:36;27.10;95.20
40291;DHT22;26000;48.304;13.626;2022-08-19T14:08:03;27.10;95.00
40291;DHT22;26000;48.304;13.626;2022-08-19T14:10:28;27.20;95.20
40291;DHT22;26000;48.304;13.626;2022-08-19T14:12:58;27.10;95.10
40291;DHT22;26000;48.304;13.626;2022-08-19T14:15:25;27.20;95.00
40291;DHT22;26000;48.304;13.626;2022-08-19T14:17:51;27.30;95.70
40291;DHT22;26000;48.304;13.626;2022-08-19T14:20:18;27.30;95.10
40291;DHT22;26000;48.304;13.626;2022-08-19T14:22:45;27.30;94.30
40291;DHT22;26000;48.304;13.626;2022-08-19T14:25:16;27.20;94.40
40291;DHT22;26000;48.304;13.626;2022-08-19T14:27:42;27.30;95.60
40291;DHT22;26000;48.304;13.626;2022-08-19T14:30:11;27.30;95.00
40291;DHT22;26000;48.304;13.626;2022-08-19T14:32:38;27.30;94.50
40291;DHT22;26000;48.304;13.626;2022-08-19T14:35:04;27.20;94.30
40291;DHT22;26000;48.304;13.626;2022-08-19T14:37:30;27.10;94.90
40291;DHT22;26000;48.304;13.626;2022-08-19T14:39:55;26.90;95.00
40291;DHT22;26000;48.304;13.626;2022-08-19T14:42:21;26.80;96.00
40291;DHT22;26000;48.304;13.626;2022-08-19T14:44:47;26.80;96.00
40291;DHT22;26000;48.304;13.626;2022-08-19T14:47:12;26.70;96.00
40291;DHT22;26000;48.304;13.626;2022-08-19T14:49:38;26.70;95.90
40291;DHT22;26000;48.304;13.626;2022-08-19T14:52:05;26.70;95.30
40291;DHT22;26000;48.304;13.626;2022-08-19T14:54:31;26.70;96.10
40291;DHT22;26000;48.304;13.626;2022-08-19T14:56:57;26.70;96.00
40291;DHT22;26000;48.304;13.626;2022-08-19T14:59:23;26.70;95.90
40291;DHT22;26000;48.304;13.626;2022-08-19T15:01:49;26.70;95.90
40291;DHT22;26000;48.304;13.626;2022-08-19T15:04:15;26.70;96.10
40291;DHT22;26000;48.304;13.626;2022-08-19T15:06:41;26.70;96.10
40291;DHT22;26000;48.304;13.626;2022-08-19T15:09:08;26.60;96.00
40291;DHT22;26000;48.304;13.626;2022-08-19T15:11:33;26.50;96.10
40291;DHT22;26000;48.304;13.626;2022-08-19T15:13:59;26.40;96.40
40291;DHT22;26000;48.304;13.626;2022-08-19T15:16:27;26.40;96.50
40291;DHT22;26000;48.304;13.626;2022-08-19T15:18:55;26.20;96.30
40291;DHT22;26000;48.304;13.626;2022-08-19T15:21:23;26.20;96.10
40291;DHT22;26000;48.304;13.626;2022-08-19T15:23:50;26.10;95.50
40291;DHT22;26000;48.304;13.626;2022-08-19T15:26:17;26.10;95.60
40291;DHT22;26000;48.304;13.626;2022-08-19T15:28:44;26.10;95.80
40291;DHT22;26000;48.304;13.626;2022-08-19T15:31:11;26.10;95.80